Time;durP1;ratioP1;P1;durP2;ratioP2;P2;SDS_P1;SDS_P2;PMS_P1;PMS_P2;Temp;Humidity;BMP_temperature;BMP_pressure;BME280_temperature;BME280_humidity;BME280_pressure;Samples;Min_cycle;Max_cycle;Signal;HPM_P1;HPM_P2
2023/03/02 00:00:45;;;;;;;13.43;10.95;;;;;;;-1.60;83.66;102335.81;5053809;28;20549;-58
2023/03/02 00:03:13;;;;;;;16.17;11.43;;;;;;;-1.61;84.04;102334.00;5054166;28;20021;-58
2023/03/02 00:05:40;;;;;;;15.15;11.15;;;;;;;-1.56;83.23;102332.84;5053044;28;20091;-58
2023/03/02 00:08:08;;;;;;;15.20;10.90;;;;;;;-1.51;82.91;102340.19;5053826;28;20044;-58
2023/03/02 00:10:35;;;;;;;16.23;10.90;;;;;;;-1.48;82.87;102332.03;5053654;28;20489;-58
2023/03/02 00:13:00;;;;;;;14.18;11.05;;;;;;;-1.57;83.02;102333.59;5053248;28;20033;-58
2023/03/02 00:15:26;;;;;;;15.65;11.18;;;;;;;-1.53;82.88;102338.25;5053732;28;20036;-58
2023/03/02 00:17:51;;;;;;;16.15;11.15;;;;;;;-1.61;83.67;102331.47;5053926;28;20029;-58
2023/03/02 00:20:16;;;;;;;14.27;10.25;;;;;;;-1.59;83.53;102335.06;5052952;28;20460;-58
2023/03/02 00:22:44;;;;;;;16.70;12.50;;;;;;;-1.70;83.82;102339.03;5053384;28;20021;-58
2023/03/02 00:25:10;;;;;;;;;;;;;;;-1.60;82.25;102340.88;5054406;28;20021;-58
2023/03/02 00:27:36;;;;;;;17.40;11.43;;;;;;;-1.69;82.97;102331.59;5052562;28;19923;-58
2023/03/02 00:30:02;;;;;;;14.73;11.00;;;;;;;-1.79;83.73;102333.03;5053519;28;20025;-58
2023/03/02 00:32:28;;;;;;;17.73;10.82;;;;;;;-1.86;84.12;102334.00;5053366;28;20017;-58
2023/03/02 00:34:53;;;;;;;16.05;11.77;;;;;;;-1.91;84.59;102337.69;5052759;28;20159;-58
2023/03/02 00:37:18;;;;;;;13.52;10.75;;;;;;;-1.93;84.97;102342.59;5053170;28;20021;-58
2023/03/02 00:39:44;;;;;;;16.90;11.63;;;;;;;-2.02;85.33;102342.53;5052763;28;20350;-58
2023/03/02 00:42:09;;;;;;;16.23;11.45;;;;;;;-2.11;85.48;102339.03;5053446;28;20103;-58
2023/03/02 00:44:34;;;;;;;16.92;11.55;;;;;;;-2.08;85.77;102344.44;5053171;28;20384;-58
2023/03/02 00:46:59;;;;;;;15.38;11.32;;;;;;;-2.16;86.03;102337.66;5052476;28;20081;-58
2023/03/02 00:49:25;;;;;;;16.40;11.98;;;;;;;-2.25;86.14;102330.03;5053477;28;20021;-58
2023/03/02 00:51:50;;;;;;;16.13;11.93;;;;;;;-2.29;86.49;102337.13;5053271;28;20445;-57
2023/03/02 00:54:16;;;;;;;14.77;11.60;;;;;;;-2.29;86.20;102337.13;5052466;28;20096;-58
2023/03/02 00:56:42;;;;;;;15.43;11.90;;;;;;;-2.39;87.16;102328.59;5052979;28;20025;-58
2023/03/02 00:59:25;;;;;;;16.35;12.65;;;;;;;-2.35;86.93;102328.19;5053212;28;20025;-58
2023/03/02 01:01:56;;;;;;;15.77;11.77;;;;;;;-2.41;87.54;102334.22;5052039;28;20540;-58
2023/03/02 01:04:30;;;;;;;17.85;12.75;;;;;;;-2.52;87.82;102328.00;5053129;28;20021;-58
2023/03/02 01:07:00;;;;;;;18.50;12.57;;;;;;;-2.50;87.75;102329.97;5053129;28;20040;-58
2023/03/02 01:09:26;;;;;;;19.17;12.35;;;;;;;-2.58;87.77;102332.41;5052081;28;20063;-58
2023/03/02 01:11:52;;;;;;;11.20;5.88;;;;;;;-2.44;87.21;102332.25;5052962;28;20025;-58
2023/03/02 01:14:18;;;;;;;16.67;12.68;;;;;;;-2.60;87.67;102323.78;5052886;28;20041;-58
2023/03/02 01:16:43;;;;;;;16.30;12.52;;;;;;;-2.62;88.62;102326.16;5051757;28;20057;-58
2023/03/02 01:19:09;;;;;;;16.67;12.77;;;;;;;-2.67;88.74;102328.19;5052901;28;20039;-58
2023/03/02 01:21:34;;;;;;;19.00;13.00;;;;;;;-2.81;89.80;102321.66;5052528;28;20021;-58
2023/03/02 01:23:59;;;;;;;16.13;12.60;;;;;;;-2.87;90.03;102330.19;5052081;28;20033;-58
2023/03/02 01:26:25;;;;;;;15.52;12.30;;;;;;;-2.91;90.45;102321.38;5052797;28;20063;-58
2023/03/02 01:28:54;;;;;;;17.50;13.68;;;;;;;-2.93;91.07;102321.97;5052653;28;20037;-58
2023/03/02 01:31:20;;;;;;;19.27;14.63;;;;;;;-2.93;91.59;102324.47;5052406;28;20060;-58
2023/03/02 01:33:46;;;;;;;17.48;13.73;;;;;;;-2.88;91.75;102316.69;5052527;28;20037;-58
2023/03/02 01:36:11;;;;;;;17.48;13.82;;;;;;;-2.81;91.71;102321.66;5052003;28;20032;-58
2023/03/02 01:38:36;;;;;;;17.42;13.90;;;;;;;-2.84;92.15;102315.38;5052474;28;20025;-58
2023/03/02 01:41:02;;;;;;;16.90;13.93;;;;;;;-2.77;91.93;102317.84;5052575;28;20032;-58
2023/03/02 01:43:28;;;;;;;19.20;14.20;;;;;;;-2.80;91.86;102304.91;5052322;28;20029;-58
2023/03/02 01:45:55;;;;;;;18.50;14.10;;;;;;;-2.80;91.60;102309.94;5053414;28;20025;-57
2023/03/02 01:48:28;;;;;;;17.90;14.15;;;;;;;-2.79;92.55;102306.66;5053633;28;20033;-58
2023/03/02 01:50:54;;;;;;;20.00;14.57;;;;;;;-2.74;92.51;102307.16;5056794;28;20025;-58
2023/03/02 01:53:21;;;;;;;20.08;14.48;;;;;;;-2.78;92.98;102308.47;5056998;28;20028;-58
2023/03/02 01:55:47;;;;;;;15.73;7.22;;;;;;;-2.72;92.03;102301.56;5056823;28;20025;-58
2023/03/02 01:58:15;;;;;;;19.45;14.43;;;;;;;-2.83;92.93;102305.47;5055697;28;20521;-58
2023/03/02 02:00:41;;;;;;;19.55;15.13;;;;;;;-2.81;93.38;102301.47;5056341;28;20041;-58
2023/03/02 02:03:15;;;;;;;15.45;7.15;;;;;;;-2.74;92.89;102299.59;5056304;28;20027;-58
2023/03/02 02:05:45;;;;;;;22.92;15.82;;;;;;;-2.80;93.57;102302.38;5056017;28;20029;-58
2023/03/02 02:08:10;;;;;;;21.02;14.95;;;;;;;-2.82;94.34;102296.25;5056136;28;20056;-58
2023/03/02 02:10:36;;;;;;;16.50;6.68;;;;;;;-2.74;93.67;102297.97;5056421;28;20407;-58
2023/03/02 02:13:02;;;;;;;20.30;16.00;;;;;;;-2.79;94.58;102293.16;5055225;28;20025;-58
2023/03/02 02:15:27;;;;;;;22.80;17.35;;;;;;;-2.78;95.63;102290.78;5056640;28;20148;-58
2023/03/02 02:17:54;;;;;;;23.95;18.13;;;;;;;-2.82;96.40;102296.25;5056228;28;20025;-58
2023/03/02 02:20:29;;;;;;;25.88;19.48;;;;;;;-2.79;97.32;102294.03;5055652;28;20103;-58
2023/03/02 02:23:09;;;;;;;25.27;19.23;;;;;;;-2.78;97.77;102287.41;5056129;28;20025;-58
2023/03/02 02:25:57;;;;;;;22.35;9.48;;;;;;;-2.71;97.75;102290.72;5055400;28;20025;-58
2023/03/02 02:28:34;;;;;;;30.88;23.30;;;;;;;-2.72;99.29;102285.53;5056241;28;20036;-58
2023/03/02 02:31:09;;;;;;;30.60;23.42;;;;;;;-2.71;100.00;102275.59;5055833;28;20024;-58
2023/03/02 02:33:36;;;;;;;33.38;25.98;;;;;;;-2.69;100.00;102278.28;5055264;28;20090;-58
2023/03/02 02:36:06;;;;;;;34.88;26.60;;;;;;;-2.75;100.00;102283.56;5055630;28;20028;-58
2023/03/02 02:38:34;;;;;;;40.60;28.73;;;;;;;-2.73;100.00;102279.56;5055841;28;20384;-58
2023/03/02 02:41:01;;;;;;;;;;;;;;;-2.66;100.00;102274.44;5055531;28;20021;-58
2023/03/02 02:43:29;;;;;;;45.47;31.00;;;;;;;-2.70;100.00;102281.53;5056055;28;19913;-58
2023/03/02 02:45:56;;;;;;;;;;;;;;;-2.69;100.00;102271.56;5056029;28;20033;-58
2023/03/02 02:48:24;;;;;;;50.13;35.90;;;;;;;-2.71;100.00;102262.97;5055124;28;19912;-58
2023/03/02 02:50:58;;;;;;;54.65;38.20;;;;;;;-2.70;100.00;102267.28;5055626;28;20441;-57
2023/03/02 02:53:29;;;;;;;57.75;39.38;;;;;;;-2.67;100.00;102272.66;5054931;28;20423;-58
2023/03/02 02:55:56;;;;;;;55.20;39.03;;;;;;;-2.70;100.00;102271.44;5055506;28;20029;-58
2023/03/02 02:58:22;;;;;;;;;;;;;;;-2.62;100.00;102265.56;5056007;28;20033;-58
2023/03/02 03:00:47;;;;;;;62.27;42.10;;;;;;;-2.65;100.00;102265.22;5054345;28;19923;-58
2023/03/02 03:03:27;;;;;;;68.22;45.55;;;;;;;-2.66;100.00;102271.94;5055381;28;20857;-59
2023/03/02 03:05:53;;;;;;;68.60;45.90;;;;;;;-2.70;100.00;102262.25;5055703;28;20048;-62
2023/03/02 03:08:48;;;;;;;71.18;48.85;;;;;;;-2.67;100.00;102272.66;5054436;28;20060;-58
2023/03/02 03:11:23;;;;;;;77.90;49.88;;;;;;;-2.69;100.00;102269.06;5054984;28;20051;-58
2023/03/02 03:14:14;;;;;;;82.28;51.50;;;;;;;-2.66;100.00;102271.94;5055233;28;20368;-59
2023/03/02 03:16:41;;;;;;;78.15;52.20;;;;;;;-2.63;100.00;102272.97;5054672;28;20102;-58
2023/03/02 03:19:22;;;;;;;79.13;51.80;;;;;;;-2.71;100.00;102270.53;5054985;28;20032;-58
2023/03/02 03:21:50;;;;;;;83.10;53.30;;;;;;;-2.65;100.00;102265.22;5054401;28;20036;-57
2023/03/02 03:24:15;;;;;;;84.45;54.38;;;;;;;-2.66;100.00;102264.34;5054665;28;20053;-58
2023/03/02 03:26:41;;;;;;;81.93;53.90;;;;;;;-2.68;100.00;102260.75;5055186;28;20061;-58
2023/03/02 03:29:06;;;;;;;88.32;55.88;;;;;;;-2.69;100.00;102258.97;5053790;28;20079;-58
2023/03/02 03:31:32;;;;;;;83.78;55.03;;;;;;;-2.75;100.00;102262.47;5055026;28;20036;-58
2023/03/02 03:33:59;;;;;;;84.38;55.17;;;;;;;-2.72;100.00;102256.13;5054595;28;20043;-58
2023/03/02 03:36:25;;;;;;;84.10;55.63;;;;;;;-2.72;100.00;102256.13;5054014;28;20025;-58
2023/03/02 03:38:50;;;;;;;91.53;57.40;;;;;;;-2.72;100.00;102258.66;5054981;28;20032;-58
2023/03/02 03:41:15;;;;;;;86.15;54.80;;;;;;;-2.74;100.00;102257.59;5055078;28;20025;-58
2023/03/02 03:43:41;;;;;;;92.72;57.70;;;;;;;-2.72;100.00;102260.28;5053810;28;20032;-57
2023/03/02 03:46:06;;;;;;;95.88;61.13;;;;;;;-2.70;100.00;102252.16;5054401;28;20029;-58
2023/03/02 03:48:32;;;;;;;98.88;58.95;;;;;;;-2.66;100.00;102259.31;5054471;28;20044;-58
2023/03/02 03:50:59;;;;;;;96.68;60.58;;;;;;;-2.70;100.00;102253.75;5053299;28;20025;-58
2023/03/02 03:53:24;;;;;;;96.57;58.10;;;;;;;-2.74;100.00;102260.09;5054672;28;20068;-58
2023/03/02 03:55:50;;;;;;;96.10;58.72;;;;;;;-2.73;100.00;102256.84;5054722;28;20271;-57
2023/03/02 03:58:15;;;;;;;58.08;21.67;;;;;;;-2.67;100.00;102262.56;5053523;28;20424;-58
2023/03/02 04:00:40;;;;;;;89.68;56.25;;;;;;;-2.66;100.00;102256.78;5054193;28;20131;-57
2023/03/02 04:03:06;;;;;;;94.28;57.75;;;;;;;-2.67;100.00;102256.63;5054220;28;20067;-58
2023/03/02 04:05:31;;;;;;;93.80;59.88;;;;;;;-2.68;100.00;102260.75;5053477;28;20021;-57
2023/03/02 04:08:00;;;;;;;95.32;58.65;;;;;;;-2.73;100.00;102266.94;5053798;28;20025;-58
2023/03/02 04:10:28;;;;;;;93.10;57.55;;;;;;;-2.61;100.00;102258.88;5054225;28;20021;-58
2023/03/02 04:12:53;;;;;;;90.97;58.30;;;;;;;-2.71;100.00;102264.56;5052752;28;20101;-58
2023/03/02 04:15:19;;;;;;;94.18;59.38;;;;;;;-2.72;100.00;102256.13;5053933;28;20056;-57
2023/03/02 04:17:44;;;;;;;91.32;56.33;;;;;;;-2.70;100.00;102254.66;5053533;28;20033;-58
2023/03/02 04:20:15;;;;;;;87.07;54.05;;;;;;;-2.70;100.00;102256.28;5054224;28;20468;-58
2023/03/02 04:22:43;;;;;;;86.60;53.80;;;;;;;-2.72;100.00;102261.16;5053902;28;20059;-57
2023/03/02 04:25:08;;;;;;;81.07;52.70;;;;;;;-2.79;100.00;102256.19;5053033;28;20051;-58
2023/03/02 04:27:33;;;;;;;86.00;53.95;;;;;;;-2.81;100.00;102258.56;5054054;28;20060;-58
2023/03/02 04:29:59;;;;;;;86.35;53.88;;;;;;;-2.80;100.00;102262.00;5053734;28;20017;-57
2023/03/02 04:32:24;;;;;;;79.55;52.03;;;;;;;-2.87;100.00;102259.53;5053172;28;20474;-57
2023/03/02 04:34:49;;;;;;;80.50;51.33;;;;;;;-2.94;100.00;102259.63;5053859;28;20025;-58
2023/03/02 04:37:14;;;;;;;82.30;53.92;;;;;;;-2.90;100.00;102266.81;5053592;28;20048;-58
2023/03/02 04:39:41;;;;;;;86.25;54.10;;;;;;;-2.94;100.00;102260.53;5053184;28;20024;-58
2023/03/02 04:42:06;;;;;;;83.75;52.13;;;;;;;-2.93;100.00;102267.38;5053359;28;20086;-58
2023/03/02 04:44:31;;;;;;;83.75;54.25;;;;;;;-2.96;100.00;102263.63;5053625;28;20029;-58
2023/03/02 04:46:56;;;;;;;56.72;18.67;;;;;;;-2.89;100.00;102264.44;5052411;28;20100;-58
2023/03/02 04:49:22;;;;;;;86.93;54.42;;;;;;;-2.96;100.00;102261.09;5053457;28;20029;-58
2023/03/02 04:51:48;;;;;;;87.72;54.30;;;;;;;-2.94;100.00;102259.63;5053931;28;20364;-58
2023/03/02 04:54:20;;;;;;;88.75;55.70;;;;;;;-2.99;100.00;102257.50;5052456;28;20028;-58
2023/03/02 04:56:49;;;;;;;89.45;55.53;;;;;;;-3.05;100.00;102250.91;5053508;28;20031;-58
2023/03/02 04:59:15;;;;;;;87.05;55.72;;;;;;;-3.05;100.00;102261.88;5053038;28;20017;-58
2023/03/02 05:01:41;;;;;;;94.95;57.97;;;;;;;-3.06;100.00;102260.13;5052342;28;20124;-58
2023/03/02 05:04:07;;;;;;;87.80;55.42;;;;;;;-3.12;100.00;102256.94;5052752;28;20108;-58
2023/03/02 05:06:32;;;;;;;93.45;57.63;;;;;;;-3.05;100.00;102255.97;5053300;28;20353;-58
2023/03/02 05:09:01;;;;;;;95.50;57.65;;;;;;;-3.06;100.00;102254.16;5052261;28;20115;-57
2023/03/02 05:11:27;;;;;;;92.88;58.80;;;;;;;-3.13;100.00;102262.69;5053412;28;20054;-57
2023/03/02 05:13:55;;;;;;;98.75;58.83;;;;;;;-3.13;100.00;102266.88;5053112;28;20028;-57
2023/03/02 05:16:21;;;;;;;99.80;59.15;;;;;;;-3.13;100.00;102270.28;5052537;28;20534;-58
2023/03/02 05:18:47;;;;;;;103.90;60.72;;;;;;;-3.11;100.00;102275.47;5053106;28;20063;-58
2023/03/02 05:21:14;;;;;;;102.07;58.10;;;;;;;-3.12;100.00;102267.03;5052114;28;20049;-58
2023/03/02 05:23:40;;;;;;;96.50;59.00;;;;;;;-3.19;100.00;102265.47;5053260;28;20029;-57
2023/03/02 05:26:06;;;;;;;99.47;57.72;;;;;;;-3.21;100.00;102268.56;5052599;28;20021;-58
2023/03/02 05:28:32;;;;;;;109.50;62.13;;;;;;;-3.19;100.00;102272.13;5052164;28;20119;-58
2023/03/02 05:30:57;;;;;;;100.45;58.47;;;;;;;-3.27;100.00;102270.41;5052413;28;20430;-58
2023/03/02 05:33:23;;;;;;;103.05;60.60;;;;;;;-3.26;100.00;102270.56;5053004;28;20468;-57
2023/03/02 05:35:48;;;;;;;110.13;62.72;;;;;;;-3.21;100.00;102263.53;5052146;28;20465;-57
2023/03/02 05:38:14;;;;;;;109.32;61.83;;;;;;;-3.25;100.00;102267.31;5052485;28;20055;-58
2023/03/02 05:40:41;;;;;;;103.25;60.92;;;;;;;-3.26;100.00;102264.66;5052754;28;20468;-58
2023/03/02 05:43:07;;;;;;;59.60;20.38;;;;;;;-3.20;100.00;102262.75;5051624;28;20396;-58
2023/03/02 05:45:36;;;;;;;103.70;61.15;;;;;;;-3.29;100.00;102264.28;5052564;28;20033;-58
2023/03/02 05:48:01;;;;;;;111.75;63.30;;;;;;;-3.32;100.00;102265.78;5052464;28;20087;-58
2023/03/02 05:50:27;;;;;;;111.00;63.88;;;;;;;-3.26;100.00;102264.66;5052049;28;20025;-58
2023/03/02 05:52:52;;;;;;;116.63;66.00;;;;;;;-3.26;100.00;102264.66;5052697;28;20021;-57
2023/03/02 05:55:18;;;;;;;119.85;65.28;;;;;;;-3.31;100.00;102262.50;5052337;28;20067;-57
2023/03/02 05:57:44;;;;;;;118.57;65.47;;;;;;;-3.25;100.00;102266.41;5051951;28;20066;-58
2023/03/02 06:00:11;;;;;;;119.57;65.20;;;;;;;-3.29;100.00;102265.22;5052138;28;20044;-57
2023/03/02 06:02:38;;;;;;;115.80;64.88;;;;;;;-3.25;100.00;102263.88;5052408;28;20029;-58
2023/03/02 06:05:05;;;;;;;130.48;69.50;;;;;;;-3.17;100.00;102260.59;5051560;28;20021;-57
2023/03/02 06:07:30;;;;;;;123.20;68.40;;;;;;;-3.19;100.00;102257.00;5052518;28;20029;-57
2023/03/02 06:09:56;;;;;;;118.50;64.72;;;;;;;-3.20;100.00;102251.06;5052091;28;20029;-57
2023/03/02 06:12:21;;;;;;;117.82;63.72;;;;;;;-3.24;100.00;102263.16;5051501;28;20482;-57
2023/03/02 06:14:46;;;;;;;122.38;67.05;;;;;;;-3.24;100.00;102248.03;5052152;28;20095;-57
2023/03/02 06:17:12;;;;;;;120.20;64.40;;;;;;;-3.23;100.00;102259.91;5052276;28;20079;-57
2023/03/02 06:19:38;;;;;;;121.90;64.68;;;;;;;-3.28;100.00;102259.41;5051893;28;20383;-58
2023/03/02 06:22:03;;;;;;;116.32;62.88;;;;;;;-3.33;100.00;102258.94;5052050;28;20395;-58
2023/03/02 06:24:28;;;;;;;73.13;23.98;;;;;;;-3.23;100.00;102268.38;5051546;28;20147;-58
2023/03/02 06:26:54;;;;;;;114.25;62.75;;;;;;;-3.28;100.00;102263.56;5052052;28;20028;-58
2023/03/02 06:29:21;;;;;;;111.82;63.33;;;;;;;-3.33;100.00;102274.06;5052118;28;20025;-57
2023/03/02 06:31:46;;;;;;;115.10;64.70;;;;;;;-3.37;100.00;102266.91;5051603;28;20021;-57
2023/03/02 06:34:11;;;;;;;71.47;19.98;;;;;;;-3.27;100.00;102275.47;5051960;28;20021;-58
2023/03/02 06:36:37;;;;;;;112.85;62.63;;;;;;;-3.30;100.00;102273.50;5056018;28;20028;-58
2023/03/02 06:39:04;;;;;;;119.20;65.43;;;;;;;-3.26;100.00;102280.66;5055021;28;20025;-58
2023/03/02 06:41:29;;;;;;;116.43;62.17;;;;;;;-3.28;100.00;102278.69;5055953;28;20048;-58
2023/03/02 06:43:54;;;;;;;116.13;63.78;;;;;;;-3.29;100.00;102280.34;5055396;28;20063;-58
2023/03/02 06:46:20;;;;;;;112.95;61.88;;;;;;;-3.28;100.00;102282.09;5055210;28;20511;-57
2023/03/02 06:48:45;;;;;;;111.78;62.30;;;;;;;-3.32;100.00;102283.44;5055900;28;20464;-57
2023/03/02 06:51:11;;;;;;;119.28;65.07;;;;;;;-3.24;100.00;102283.34;5055428;28;20029;-57
2023/03/02 06:53:37;;;;;;;115.57;62.35;;;;;;;-3.19;100.00;102279.69;5054895;28;20574;-57
2023/03/02 06:56:02;;;;;;;118.85;64.57;;;;;;;-3.19;100.00;102279.69;5055097;28;20021;-57
2023/03/02 06:58:27;;;;;;;110.85;61.40;;;;;;;-3.18;100.00;102279.84;5055442;28;20029;-58
2023/03/02 07:00:53;;;;;;;110.82;61.22;;;;;;;-3.15;100.00;102282.72;5054539;28;20049;-57
2023/03/02 07:03:18;;;;;;;118.22;62.33;;;;;;;-3.10;100.00;102294.94;5055437;28;20074;-58
2023/03/02 07:05:44;;;;;;;116.63;63.47;;;;;;;-3.04;100.00;102288.03;5055374;28;20098;-58
2023/03/02 07:08:09;;;;;;;58.85;21.75;;;;;;;-2.99;100.00;102290.28;5054343;28;20025;-57
2023/03/02 07:10:36;;;;;;;114.22;61.42;;;;;;;-2.93;100.00;102292.59;5055338;28;20025;-57
2023/03/02 07:13:01;;;;;;;115.17;61.10;;;;;;;-2.89;100.00;102298.84;5054859;28;20021;-57
2023/03/02 07:15:26;;;;;;;115.38;59.72;;;;;;;-2.88;100.00;102294.00;5054401;28;20036;-57
2023/03/02 07:17:52;;;;;;;111.65;62.25;;;;;;;-2.90;100.00;102297.97;5055297;28;20100;-57
2023/03/02 07:20:18;;;;;;;105.43;59.10;;;;;;;-2.84;100.00;102297.72;5054821;28;20029;-57
2023/03/02 07:22:44;;;;;;;106.43;60.45;;;;;;;-2.80;100.00;102294.81;5054264;28;20389;-58
2023/03/02 07:25:10;;;;;;;109.78;60.95;;;;;;;-2.76;100.00;102296.00;5054759;28;20021;-57
2023/03/02 07:27:36;;;;;;;114.05;60.50;;;;;;;-2.71;100.00;102299.91;5054209;28;20029;-58
2023/03/02 07:30:02;;;;;;;107.15;61.10;;;;;;;-2.66;100.00;102296.25;5054562;28;20389;-57
2023/03/02 07:32:27;;;;;;;107.25;61.70;;;;;;;-2.61;100.00;102297.63;5055020;28;20103;-57
2023/03/02 07:34:53;;;;;;;55.53;19.33;;;;;;;-2.54;100.00;102304.25;5054231;28;20516;-57
2023/03/02 07:37:18;;;;;;;103.05;59.72;;;;;;;-2.51;100.00;102302.03;5054545;28;20515;-57
2023/03/02 07:39:43;;;;;;;108.88;60.17;;;;;;;-2.44;100.00;102296.00;5054862;28;20078;-57
2023/03/02 07:42:11;;;;;;;97.72;57.83;;;;;;;-2.38;100.00;102297.53;5053392;28;20025;-57
2023/03/02 07:44:36;;;;;;;99.82;57.08;;;;;;;-2.30;100.00;102299.97;5054531;28;20488;-58
2023/03/02 07:47:02;;;;;;;96.70;55.40;;;;;;;-2.23;100.00;102297.38;5053195;28;20021;-57
2023/03/02 07:49:27;;;;;;;62.63;19.67;;;;;;;-2.16;100.00;102294.72;5053890;28;20078;-57
2023/03/02 07:51:53;;;;;;;91.40;53.30;;;;;;;-2.07;100.00;102299.84;5054557;28;20033;-57
2023/03/02 07:54:18;;;;;;;88.03;51.92;;;;;;;-2.01;100.00;102301.38;5054432;28;20025;-57
2023/03/02 07:56:43;;;;;;;85.70;52.40;;;;;;;-1.93;100.00;102298.75;5053709;28;20507;-58
2023/03/02 07:59:11;;;;;;;86.80;52.22;;;;;;;-1.87;100.00;102304.44;5054266;28;20461;-58
2023/03/02 08:01:36;;;;;;;85.22;50.58;;;;;;;-1.79;100.00;102296.00;5054274;28;20041;-58
2023/03/02 08:04:01;;;;;;;80.20;49.53;;;;;;;-1.71;100.00;102291.75;5053111;28;20475;-57
2023/03/02 08:06:27;;;;;;;77.68;48.05;;;;;;;-1.63;100.00;102290.00;5054448;28;20078;-58
2023/03/02 08:08:52;;;;;;;75.32;46.60;;;;;;;-1.54;100.00;102306.09;5054250;28;20498;-57
2023/03/02 08:11:19;;;;;;;76.95;45.67;;;;;;;-1.45;100.00;102299.44;5053263;28;20128;-57
2023/03/02 08:13:45;;;;;;;68.82;45.03;;;;;;;-1.37;100.00;102296.06;5054139;28;20403;-58
2023/03/02 08:16:12;;;;;;;72.45;44.45;;;;;;;-1.24;100.00;102297.28;5053689;28;20036;-57
2023/03/02 08:18:38;;;;;;;72.07;45.30;;;;;;;-1.14;100.00;102297.47;5053399;28;20025;-57
2023/03/02 08:21:10;;;;;;;49.10;17.50;;;;;;;-1.01;100.00;102297.97;5053717;28;20514;-58
2023/03/02 08:23:36;;;;;;;60.80;39.60;;;;;;;-0.93;100.00;102292.75;5053987;28;20037;-57
2023/03/02 08:26:01;;;;;;;58.42;38.25;;;;;;;-0.82;100.00;102292.19;5052682;28;20484;-57
2023/03/02 08:28:26;;;;;;;59.17;39.50;;;;;;;-0.72;100.00;102289.81;5053914;28;20032;-57
2023/03/02 08:30:59;;;;;;;61.33;38.63;;;;;;;-0.51;100.00;102298.63;5053629;28;20416;-58
2023/03/02 08:33:26;;;;;;;56.45;37.42;;;;;;;-0.44;100.00;102300.13;5053887;28;20036;-58
2023/03/02 08:36:00;;;;;;;52.67;35.67;;;;;;;-0.32;100.00;102299.50;5053647;28;20486;-57
2023/03/02 08:38:27;;;;;;;51.15;34.47;;;;;;;-0.23;100.00;102301.31;5052980;28;20032;-58
2023/03/02 08:40:53;;;;;;;53.40;35.80;;;;;;;-0.11;100.00;102295.63;5053787;28;20368;-58
2023/03/02 08:43:20;;;;;;;50.17;35.38;;;;;;;0.04;100.00;102302.19;5053497;28;20469;-57
2023/03/02 08:45:53;;;;;;;48.83;33.17;;;;;;;0.18;100.00;102300.06;5052950;28;20021;-58
2023/03/02 08:48:21;;;;;;;47.55;32.47;;;;;;;0.31;100.00;102287.78;5053095;28;20166;-57
2023/03/02 08:51:01;;;;;;;46.28;31.80;;;;;;;0.48;99.56;102291.91;5053451;28;20024;-58
2023/03/02 08:53:29;;;;;;;46.72;31.17;;;;;;;0.59;97.31;102286.19;5052828;28;20036;-58
2023/03/02 08:55:55;;;;;;;42.15;29.30;;;;;;;0.92;95.63;102282.44;5053112;28;20086;-57
2023/03/02 08:58:21;;;;;;;40.33;29.45;;;;;;;1.00;94.20;102279.72;5053176;28;20489;-57
2023/03/02 09:00:47;;;;;;;42.30;29.25;;;;;;;1.12;92.14;102281.75;5052255;28;20037;-57
2023/03/02 09:03:12;;;;;;;39.42;28.50;;;;;;;1.22;90.29;102283.44;5052943;28;20043;-57
2023/03/02 09:05:38;;;;;;;39.33;26.98;;;;;;;1.42;90.36;102284.34;5053055;28;20385;-58
2023/03/02 09:08:04;;;;;;;40.75;26.58;;;;;;;1.55;88.68;102274.53;5052209;28;20041;-57
2023/03/02 09:10:29;;;;;;;37.08;26.30;;;;;;;1.68;87.72;102275.59;5053263;28;20035;-58
2023/03/02 09:12:54;;;;;;;35.72;25.50;;;;;;;1.84;86.08;102273.66;5052887;28;20391;-58
2023/03/02 09:15:20;;;;;;;33.90;23.67;;;;;;;2.04;84.07;102272.88;5052313;28;20021;-58
2023/03/02 09:17:45;;;;;;;36.35;23.90;;;;;;;2.23;83.10;102272.81;5052972;28;20028;-58
2023/03/02 09:20:11;;;;;;;29.00;22.25;;;;;;;2.29;80.98;102278.41;5051816;28;20429;-58
2023/03/02 09:22:36;;;;;;;31.65;22.20;;;;;;;2.44;79.67;102270.31;5052876;28;20441;-57
2023/03/02 09:25:02;;;;;;;32.40;22.35;;;;;;;2.72;78.35;102273.56;5052659;28;20035;-57
2023/03/02 09:27:28;;;;;;;30.73;22.08;;;;;;;2.86;77.29;102266.19;5052050;28;20119;-57
2023/03/02 09:29:53;;;;;;;30.42;21.73;;;;;;;3.03;76.02;102275.25;5052670;28;20108;-57
2023/03/02 09:32:18;;;;;;;30.38;21.33;;;;;;;3.17;74.96;102268.75;5052805;28;20032;-58
2023/03/02 09:34:44;;;;;;;29.98;21.05;;;;;;;3.42;73.16;102271.63;5052074;28;20393;-57
2023/03/02 09:37:09;;;;;;;27.75;20.60;;;;;;;3.74;72.33;102270.81;5052255;28;20098;-58
2023/03/02 09:39:36;;;;;;;28.88;20.70;;;;;;;3.96;70.33;102268.31;5052696;28;20021;-56
2023/03/02 09:42:17;;;;;;;28.90;19.90;;;;;;;4.32;69.40;102266.84;5051686;28;20037;-57
2023/03/02 09:44:57;;;;;;;28.38;20.20;;;;;;;4.54;66.19;102264.28;5052670;28;20029;-57
2023/03/02 09:47:45;;;;;;;28.67;19.92;;;;;;;4.97;65.80;102269.25;5052596;28;20036;-57
2023/03/02 09:50:26;;;;;;;26.88;19.45;;;;;;;5.20;64.66;102260.75;5051740;28;20036;-57
2023/03/02 09:53:30;;;;;;;25.33;18.40;;;;;;;5.69;66.27;102265.09;5052767;28;20040;-57
2023/03/02 09:55:59;;;;;;;28.55;18.80;;;;;;;5.94;58.81;102255.84;5047990;28;20099;-58
2023/03/02 09:58:29;;;;;;;26.23;17.77;;;;;;;6.36;58.47;102258.78;5052641;28;20028;-57
2023/03/02 10:01:00;;;;;;;25.17;17.55;;;;;;;6.41;55.95;102254.88;5052198;28;20057;-57
2023/03/02 10:03:39;;;;;;;25.00;17.35;;;;;;;6.75;56.36;102261.41;5051853;28;20052;-57
2023/03/02 10:06:05;;;;;;;23.92;17.52;;;;;;;7.00;54.50;102255.41;5052301;28;20039;-57
2023/03/02 10:08:34;;;;;;;21.63;16.27;;;;;;;7.40;52.58;102264.03;5052375;28;20107;-57
2023/03/02 10:11:38;;;;;;;27.17;17.80;;;;;;;7.72;55.73;102261.75;5054669;28;20025;-58
2023/03/02 10:14:13;;;;;;;21.63;16.52;;;;;;;7.49;50.83;102263.75;5049587;28;20547;-58
2023/03/02 10:16:43;;;;;;;23.10;16.38;;;;;;;7.48;49.82;102267.09;5055654;28;20021;-58
2023/03/02 10:19:14;;;;;;;19.80;15.27;;;;;;;7.59;50.30;102262.66;5056222;28;20033;-58
2023/03/02 10:21:44;;;;;;;21.73;15.88;;;;;;;7.85;49.08;102263.44;5056564;28;20025;-58
2023/03/02 10:24:33;;;;;;;21.38;15.70;;;;;;;8.22;50.75;102256.38;5055259;28;20024;-58
2023/03/02 10:27:24;;;;;;;19.05;14.68;;;;;;;8.31;47.23;102250.03;5055829;28;20067;-56
2023/03/02 10:29:58;;;;;;;20.00;15.10;;;;;;;8.46;47.44;102256.13;5056146;28;20376;-56
2023/03/02 10:32:30;;;;;;;22.60;15.52;;;;;;;8.74;46.37;102260.38;5055390;28;20078;-56
2023/03/02 10:34:58;;;;;;;21.33;15.52;;;;;;;8.75;46.53;102257.00;5055787;28;20112;-56
2023/03/02 10:37:27;;;;;;;;;;;;;;;9.44;51.66;102254.09;5056678;28;20033;-56
2023/03/02 10:39:53;;;;;;;21.67;15.15;;;;;;;8.94;46.18;102252.97;5055459;28;20356;-56
2023/03/02 10:42:27;;;;;;;26.30;15.13;;;;;;;8.93;45.13;102258.88;5055816;28;20036;-56
2023/03/02 10:44:58;;;;;;;20.05;14.07;;;;;;;8.98;44.45;102252.34;5055266;28;20040;-55
2023/03/02 10:47:27;;;;;;;19.85;14.82;;;;;;;9.04;44.55;102242.41;5055689;28;20025;-56
2023/03/02 10:49:54;;;;;;;19.80;14.15;;;;;;;9.14;44.04;102242.16;5055749;28;20029;-56
2023/03/02 10:52:23;;;;;;;20.02;15.02;;;;;;;9.07;44.07;102242.56;5055152;28;20032;-57
2023/03/02 10:54:49;;;;;;;19.90;14.32;;;;;;;9.46;43.38;102237.94;5055626;28;20159;-56
2023/03/02 10:57:23;;;;;;;21.40;14.02;;;;;;;9.78;44.39;102241.44;5055299;28;20028;-55
2023/03/02 10:59:50;;;;;;;19.70;14.40;;;;;;;9.92;41.72;102234.47;5054670;28;20029;-56
2023/03/02 11:02:26;;;;;;;19.07;14.30;;;;;;;10.09;42.97;102235.38;5055317;28;20094;-55
2023/03/02 11:04:57;;;;;;;21.35;13.73;;;;;;;10.62;40.82;102230.44;5055709;28;20017;-55
2023/03/02 11:07:26;;;;;;;18.45;13.98;;;;;;;10.82;40.57;102234.91;5054812;28;20033;-56
2023/03/02 11:09:58;;;;;;;19.65;14.38;;;;;;;10.58;40.08;102237.13;5055516;28;20028;-56